createdAt,value
2023-04-21T00:00:55.024Z,152.02
2023-04-21T00:01:55.101Z,153.51
2023-04-21T00:02:55.376Z,151.99
2023-04-21T00:03:55.407Z,153.14
2023-04-21T00:04:55.557Z,152.20
2023-04-21T00:05:55.324Z,155.01
2023-04-21T00:06:55.342Z,151.66
2023-04-21T00:07:55.380Z,153.09
2023-04-21T00:08:55.449Z,151.87
2023-04-21T00:09:55.526Z,153.48
2023-04-21T00:10:55.543Z,152.86
2023-04-21T00:11:55.605Z,151.15
2023-04-21T00:12:55.735Z,152.83
2023-04-21T00:13:55.718Z,152.68
2023-04-21T00:14:55.784Z,153.31
2023-04-21T00:15:55.914Z,152.03
2023-04-21T00:16:55.864Z,152.67
2023-04-21T00:17:56.008Z,151.60
2023-04-21T00:18:55.974Z,153.40
2023-04-21T00:19:55.991Z,153.11
2023-04-21T00:20:56.022Z,151.91
2023-04-21T00:21:56.117Z,152.01
2023-04-21T00:22:56.146Z,152.22
2023-04-21T00:23:56.178Z,151.63
2023-04-21T00:24:56.221Z,150.36
2023-04-21T00:25:56.231Z,149.76
2023-04-21T00:26:56.362Z,150.15
2023-04-21T00:27:56.367Z,149.82
2023-04-21T00:28:56.381Z,150.48
2023-04-21T00:29:56.450Z,150.92
2023-04-21T00:30:56.470Z,151.71
2023-04-21T00:31:56.540Z,150.34
2023-04-21T00:32:56.625Z,148.81
2023-04-21T00:33:56.604Z,148.91
2023-04-21T00:34:56.630Z,152.29
2023-04-21T00:35:56.665Z,152.04
2023-04-21T00:36:56.719Z,150.95
2023-04-21T00:37:56.794Z,150.60
2023-04-21T00:38:56.850Z,149.48
2023-04-21T00:39:56.895Z,149.89
2023-04-21T00:40:56.913Z,149.37
2023-04-21T00:41:57.068Z,150.27
2023-04-21T00:42:57.026Z,153.19
2023-04-21T00:43:57.067Z,152.36
2023-04-21T00:44:57.105Z,150.02
2023-04-21T00:45:57.113Z,149.81
2023-04-21T00:46:57.223Z,149.24
2023-04-21T00:47:57.342Z,148.93
2023-04-21T00:48:57.273Z,148.55
2023-04-21T00:49:57.322Z,149.97
2023-04-21T00:50:57.372Z,148.98
2023-04-21T00:51:57.388Z,149.42
2023-04-21T00:52:57.410Z,148.50
2023-04-21T00:53:57.468Z,148.56
2023-04-21T00:54:57.483Z,148.38
2023-04-21T00:55:57.536Z,147.61
2023-04-21T00:56:57.645Z,149.64
2023-04-21T00:57:57.630Z,147.89
2023-04-21T00:58:57.683Z,147.82
2023-04-21T00:59:57.701Z,149.01
2023-04-21T01:00:57.807Z,149.85
2023-04-21T01:01:57.867Z,149.97
2023-04-21T01:02:57.926Z,148.87
2023-04-21T01:03:58.058Z,148.41
2023-04-21T01:04:57.905Z,146.75
2023-04-21T01:05:57.940Z,147.75
2023-04-21T01:06:57.958Z,145.92
2023-04-21T01:07:58.025Z,147.21
2023-04-21T01:08:58.076Z,147.78
2023-04-21T01:09:58.118Z,149.65
2023-04-21T01:10:58.154Z,150.36
2023-04-21T01:11:58.148Z,150.09
2023-04-21T01:12:58.242Z,147.99
2023-04-21T01:13:58.213Z,147.26
2023-04-21T01:14:58.225Z,147.03
2023-04-21T01:15:58.288Z,147.08
2023-04-21T01:16:58.351Z,147.05
2023-04-21T01:17:58.411Z,148.35
2023-04-21T01:18:58.435Z,149.20
2023-04-21T01:19:58.440Z,147.30
2023-04-21T01:20:58.474Z,148.97
2023-04-21T01:21:58.525Z,147.92
2023-04-21T01:22:58.564Z,148.67
2023-04-21T01:23:58.602Z,150.37
2023-04-21T01:24:58.636Z,150.88
2023-04-21T01:25:58.674Z,149.44
2023-04-21T01:26:58.754Z,150.69
2023-04-21T01:27:58.793Z,150.82
2023-04-21T01:28:58.820Z,149.36
2023-04-21T01:29:58.917Z,150.44
2023-04-21T01:30:58.932Z,153.32
2023-04-21T01:31:59.018Z,154.81
2023-04-21T01:32:59.127Z,155.79
2023-04-21T01:33:59.100Z,153.94
2023-04-21T01:34:59.114Z,154.91
2023-04-21T01:35:59.217Z,153.86
2023-04-21T01:36:59.234Z,155.92
2023-04-21T01:37:59.388Z,156.65
2023-04-21T01:38:59.344Z,156.68
2023-04-21T01:39:59.421Z,155.61
2023-04-21T01:40:59.494Z,154.80
2023-04-21T01:41:59.547Z,156.08
2023-04-21T01:42:59.622Z,157.64
2023-04-21T01:43:59.687Z,156.41
2023-04-21T01:44:59.742Z,158.05
2023-04-21T01:45:59.772Z,157.27
2023-04-21T01:46:59.807Z,155.72
2023-04-21T01:47:59.883Z,157.83
2023-04-21T01:48:59.911Z,158.07
2023-04-21T01:49:59.923Z,158.09
2023-04-21T01:50:59.958Z,157.04
2023-04-21T01:52:00.056Z,158.12
2023-04-21T01:53:00.123Z,157.78
2023-04-21T01:54:00.125Z,157.44
2023-04-21T01:55:00.158Z,157.25
2023-04-21T01:56:00.181Z,156.29
2023-04-21T01:57:00.246Z,158.37
2023-04-21T01:58:00.198Z,156.75
2023-04-21T01:59:00.236Z,158.12
2023-04-21T02:00:00.259Z,159.10
2023-04-21T02:01:00.355Z,158.59
2023-04-21T02:02:00.376Z,157.85
2023-04-21T02:03:00.448Z,158.21
2023-04-21T02:04:00.646Z,158.56
2023-04-21T02:05:00.391Z,158.87
2023-04-21T02:06:00.386Z,155.86
2023-04-21T02:07:00.431Z,158.96
2023-04-21T02:08:00.438Z,157.08
2023-04-21T02:09:00.467Z,155.85
2023-04-21T02:10:00.484Z,154.84
2023-04-21T02:11:00.452Z,155.23
2023-04-21T02:12:00.486Z,156.42
2023-04-21T02:13:00.509Z,155.18
2023-04-21T02:14:00.528Z,155.97
2023-04-21T02:15:00.543Z,155.43
2023-04-21T02:16:12.162Z,154.66
2023-04-21T02:17:01.519Z,154.81
2023-04-21T02:18:00.606Z,155.16
2023-04-21T02:19:00.505Z,155.72
2023-04-21T02:20:01.918Z,154.62
2023-04-21T02:21:00.484Z,156.62
2023-04-21T02:22:00.492Z,154.84
2023-04-21T02:23:00.465Z,155.90
2023-04-21T02:24:00.462Z,155.51
2023-04-21T02:25:00.463Z,156.91
2023-04-21T02:26:00.462Z,157.02
2023-04-21T02:27:00.437Z,155.28
2023-04-21T02:28:00.429Z,155.85
2023-04-21T02:29:00.520Z,155.98
2023-04-21T02:30:00.436Z,156.14
2023-04-21T02:31:00.407Z,155.17
2023-04-21T02:32:07.804Z,154.36
2023-04-21T02:33:01.434Z,154.59
2023-04-21T02:34:00.374Z,155.02
2023-04-21T02:35:00.373Z,155.84
2023-04-21T02:36:00.394Z,156.55
2023-04-21T02:37:00.360Z,157.54
2023-04-21T02:38:00.355Z,157.87
2023-04-21T02:39:00.358Z,156.61
2023-04-21T02:40:00.351Z,157.58
2023-04-21T02:41:00.321Z,155.98
2023-04-21T02:42:00.330Z,156.37
2023-04-21T02:43:00.332Z,156.70
2023-04-21T02:44:00.289Z,155.38
2023-04-21T02:45:00.281Z,157.37
2023-04-21T02:46:00.292Z,156.56
2023-04-21T02:47:00.458Z,157.18
2023-04-21T02:48:00.324Z,156.69
2023-04-21T02:49:00.265Z,157.03
2023-04-21T02:50:00.269Z,157.23
2023-04-21T02:51:00.249Z,157.11
2023-04-21T02:52:00.253Z,156.96
2023-04-21T02:53:00.245Z,156.42
2023-04-21T02:54:00.235Z,157.25
2023-04-21T02:55:00.256Z,156.95
2023-04-21T02:56:00.312Z,157.69
2023-04-21T02:57:00.224Z,158.28
2023-04-21T02:58:00.219Z,158.24
2023-04-21T02:59:00.240Z,159.32
2023-04-21T03:00:00.208Z,158.12
2023-04-21T03:01:00.267Z,157.53
2023-04-21T03:02:00.405Z,158.34
2023-04-21T03:03:00.342Z,158.32
2023-04-21T03:04:00.289Z,159.02
2023-04-21T03:05:00.181Z,158.14
2023-04-21T03:06:00.186Z,160.10
2023-04-21T03:07:00.221Z,159.01
2023-04-21T03:08:00.149Z,159.59
2023-04-21T03:09:00.157Z,158.90
2023-04-21T03:10:00.149Z,158.49
2023-04-21T03:11:00.178Z,159.06
2023-04-21T03:12:00.120Z,160.73
2023-04-21T03:13:00.154Z,159.15
2023-04-21T03:14:00.227Z,158.35
2023-04-21T03:15:00.297Z,158.59
2023-04-21T03:16:00.353Z,159.13
2023-04-21T03:17:00.399Z,159.69
2023-04-21T03:18:00.478Z,159.21
2023-04-21T03:19:00.465Z,159.38
2023-04-21T03:20:00.555Z,160.58
2023-04-21T03:21:00.577Z,159.36
2023-04-21T03:22:00.647Z,159.74
2023-04-21T03:23:00.683Z,159.80
2023-04-21T03:24:00.753Z,159.76
2023-04-21T03:25:00.793Z,161.25
2023-04-21T03:26:00.895Z,161.48
2023-04-21T03:27:00.931Z,160.78
2023-04-21T03:28:00.988Z,161.05
2023-04-21T03:29:01.065Z,160.66
2023-04-21T03:30:01.093Z,160.70
2023-04-21T03:31:01.190Z,159.18
2023-04-21T03:32:01.383Z,159.89
2023-04-21T03:33:01.293Z,159.57
2023-04-21T03:34:01.371Z,159.68
2023-04-21T03:35:01.450Z,159.32
2023-04-21T03:36:01.494Z,159.19
2023-04-21T03:37:01.562Z,158.76
2023-04-21T03:38:03.885Z,158.15
2023-04-21T03:39:20.301Z,160.54
2023-04-21T03:40:02.800Z,160.60
2023-04-21T03:41:01.815Z,160.61
2023-04-21T03:42:01.785Z,160.77
2023-04-21T03:43:01.766Z,160.50
2023-04-21T03:44:01.981Z,161.04
2023-04-21T03:45:01.765Z,159.86
2023-04-21T03:46:01.784Z,159.70
2023-04-21T03:47:01.788Z,160.99
2023-04-21T03:48:01.826Z,160.50
2023-04-21T03:49:03.781Z,161.36
2023-04-21T03:50:01.913Z,159.94
2023-04-21T03:51:02.021Z,159.62
2023-04-21T03:52:02.046Z,160.31
2023-04-21T03:53:02.097Z,159.32
2023-04-21T03:54:02.157Z,159.45
2023-04-21T03:55:02.198Z,161.35
2023-04-21T03:56:02.256Z,160.95
2023-04-21T03:57:02.307Z,161.11
2023-04-21T03:58:02.373Z,161.83
2023-04-21T03:59:02.455Z,161.35
2023-04-21T04:00:02.500Z,161.28
2023-04-21T04:01:02.525Z,160.42
2023-04-21T04:02:02.676Z,161.33
2023-04-21T04:03:02.775Z,160.78
2023-04-21T04:04:02.829Z,162.04
2023-04-21T04:05:02.795Z,161.07
2023-04-21T04:06:02.831Z,160.49
2023-04-21T04:07:02.861Z,161.83
2023-04-21T04:08:02.889Z,160.61
2023-04-21T04:09:02.995Z,160.24
2023-04-21T04:10:03.040Z,159.99
2023-04-21T04:11:03.088Z,160.97
2023-04-21T04:12:03.096Z,161.13
2023-04-21T04:13:03.179Z,161.74
2023-04-21T04:14:03.204Z,159.15
2023-04-21T04:15:03.316Z,160.33
2023-04-21T04:16:03.334Z,160.16
2023-04-21T04:17:03.375Z,159.64
2023-04-21T04:18:03.429Z,159.50
2023-04-21T04:19:03.462Z,158.37
2023-04-21T04:20:03.576Z,157.99
2023-04-21T04:21:03.575Z,158.56
2023-04-21T04:22:03.610Z,158.81
2023-04-21T04:23:03.664Z,157.65
2023-04-21T04:24:03.713Z,157.18
2023-04-21T04:25:03.748Z,159.34
2023-04-21T04:26:03.803Z,157.56
2023-04-21T04:27:03.850Z,157.96
2023-04-21T04:28:03.918Z,158.52
2023-04-21T04:29:03.932Z,157.71
2023-04-21T04:30:04.020Z,158.02
2023-04-21T04:31:04.131Z,159.08
2023-04-21T04:32:04.119Z,158.76
2023-04-21T04:33:04.163Z,158.11
2023-04-21T04:34:04.192Z,158.83
2023-04-21T04:35:04.238Z,157.68
2023-04-21T04:36:04.275Z,158.24
2023-04-21T04:37:04.347Z,157.10
2023-04-21T04:38:04.375Z,158.97
2023-04-21T04:39:04.430Z,158.56
2023-04-21T04:40:04.440Z,160.06
2023-04-21T04:41:04.505Z,159.48
2023-04-21T04:42:04.555Z,159.62
2023-04-21T04:43:04.595Z,158.72
2023-04-21T04:44:04.689Z,159.13
2023-04-21T04:45:04.729Z,158.13
2023-04-21T04:46:04.740Z,158.91
2023-04-21T04:47:04.990Z,159.30
2023-04-21T04:48:04.921Z,159.98
2023-04-21T04:49:04.938Z,161.39
2023-04-21T04:50:04.964Z,160.81
2023-04-21T04:51:05.011Z,160.84
2023-04-21T04:52:05.095Z,160.36
2023-04-21T04:53:05.159Z,162.20
2023-04-21T04:54:05.209Z,161.86
2023-04-21T04:55:05.292Z,160.83
2023-04-21T04:56:05.288Z,162.47
2023-04-21T04:57:05.337Z,162.61
2023-04-21T04:58:05.388Z,162.77
2023-04-21T04:59:05.423Z,163.50
2023-04-21T05:00:05.504Z,163.55
2023-04-21T05:01:12.612Z,163.64
2023-04-21T05:02:05.626Z,163.89
2023-04-21T05:03:05.629Z,164.17
2023-04-21T05:04:05.663Z,164.75
2023-04-21T05:05:05.722Z,165.58
2023-04-21T05:06:05.532Z,167.00
2023-04-21T05:07:05.530Z,166.77
2023-04-21T05:08:05.565Z,167.29
2023-04-21T05:09:05.488Z,167.17
2023-04-21T05:10:05.501Z,166.19
2023-04-21T05:11:05.477Z,166.98
2023-04-21T05:12:05.465Z,168.44
2023-04-21T05:13:05.457Z,166.54
2023-04-21T05:14:05.500Z,168.71
2023-04-21T05:15:05.424Z,166.61
2023-04-21T05:16:05.482Z,167.38
2023-04-21T05:17:05.540Z,168.83
2023-04-21T05:18:05.544Z,169.48
2023-04-21T05:19:05.448Z,168.53
2023-04-21T05:20:05.413Z,169.06
2023-04-21T05:21:05.422Z,168.81
2023-04-21T05:22:05.428Z,168.57
2023-04-21T05:23:05.426Z,168.97
2023-04-21T05:24:05.531Z,168.41
2023-04-21T05:25:05.501Z,169.03
2023-04-21T05:26:05.570Z,167.41
2023-04-21T05:27:05.630Z,168.78
2023-04-21T05:28:05.667Z,168.60
2023-04-21T05:29:05.742Z,168.49
2023-04-21T05:30:05.780Z,169.42
2023-04-21T05:31:05.845Z,167.64
2023-04-21T05:32:05.892Z,164.45
2023-04-21T05:33:05.999Z,162.98
2023-04-21T05:34:06.042Z,166.56
2023-04-21T05:35:05.976Z,173.89
2023-04-21T05:36:06.018Z,178.53
2023-04-21T05:37:06.051Z,185.37
2023-04-21T05:38:06.122Z,189.27
2023-04-21T05:39:06.084Z,185.82
2023-04-21T05:40:06.158Z,192.37
2023-04-21T05:41:06.228Z,200.02
2023-04-21T05:42:06.262Z,205.70
2023-04-21T05:43:06.232Z,212.04
2023-04-21T05:44:06.247Z,215.32
2023-04-21T05:45:06.307Z,212.21
2023-04-21T05:46:13.342Z,220.44
2023-04-21T05:47:06.357Z,219.67
2023-04-21T05:48:06.405Z,216.07
2023-04-21T05:49:06.337Z,219.21
2023-04-21T05:50:06.328Z,222.11
2023-04-21T05:51:06.295Z,229.20
2023-04-21T05:52:06.311Z,234.96
2023-04-21T05:53:06.284Z,240.86
2023-04-21T05:54:06.297Z,246.13
2023-04-21T05:55:06.332Z,250.00
2023-04-21T05:56:06.300Z,249.58
2023-04-21T05:57:06.262Z,250.00
2023-04-21T05:58:06.270Z,249.62
2023-04-21T05:59:06.593Z,250.00
2023-04-21T06:00:06.246Z,249.17
2023-04-21T06:01:06.310Z,250.05
2023-04-21T06:02:06.306Z,252.39
2023-04-21T06:03:06.339Z,250.25
2023-04-21T06:04:06.836Z,249.98
2023-04-21T06:05:06.454Z,249.89
2023-04-21T06:06:06.196Z,249.47
2023-04-21T06:07:06.191Z,250.00
2023-04-21T06:08:06.197Z,250.00
2023-04-21T06:09:06.181Z,249.80
2023-04-21T06:10:06.158Z,249.53
2023-04-21T06:11:06.155Z,250.00
2023-04-21T06:12:06.183Z,248.99
2023-04-21T06:13:06.170Z,250.00
2023-04-21T06:14:06.148Z,249.75
2023-04-21T06:15:06.185Z,248.98
2023-04-21T06:16:06.228Z,249.17
2023-04-21T06:17:06.173Z,249.75
2023-04-21T06:18:06.183Z,249.68
2023-04-21T06:19:06.126Z,250.00
2023-04-21T06:20:06.108Z,250.00
2023-04-21T06:21:06.117Z,249.00
2023-04-21T06:22:06.127Z,248.76
2023-04-21T06:23:06.105Z,248.93
2023-04-21T06:24:06.124Z,248.59
2023-04-21T06:25:06.113Z,249.59
2023-04-21T06:26:06.166Z,249.84
2023-04-21T06:27:06.178Z,249.56
2023-04-21T06:28:06.163Z,268.16
2023-04-21T06:29:06.176Z,249.71
2023-04-21T06:30:06.220Z,245.65
2023-04-21T06:31:08.772Z,244.41
2023-04-21T06:32:06.277Z,244.84
2023-04-21T06:33:06.297Z,242.16
2023-04-21T06:34:06.214Z,242.46
2023-04-21T06:35:06.214Z,240.18
2023-04-21T06:36:06.209Z,239.67
2023-04-21T06:37:06.226Z,241.02
2023-04-21T06:38:06.218Z,238.03
2023-04-21T06:39:06.192Z,236.12
2023-04-21T06:40:06.181Z,241.19
2023-04-21T06:41:06.183Z,236.89
2023-04-21T06:42:06.186Z,237.48
2023-04-21T06:43:06.175Z,239.38
2023-04-21T06:44:06.142Z,240.65
2023-04-21T06:45:06.159Z,239.60
2023-04-21T06:46:06.126Z,239.13
2023-04-21T06:47:06.221Z,238.45
2023-04-21T06:48:06.178Z,237.62
2023-04-21T06:49:06.136Z,236.60
2023-04-21T06:50:06.142Z,235.95
2023-04-21T06:51:06.097Z,236.04
2023-04-21T06:52:06.105Z,236.04
2023-04-21T06:53:06.148Z,234.73
2023-04-21T06:54:06.065Z,233.97
2023-04-21T06:55:06.085Z,232.28
2023-04-21T06:56:06.084Z,231.64
2023-04-21T06:57:06.026Z,233.44
2023-04-21T06:58:06.125Z,232.47
2023-04-21T06:59:06.085Z,232.03
2023-04-21T07:00:06.078Z,230.02
2023-04-21T07:01:06.077Z,227.94
2023-04-21T07:02:06.032Z,228.67
2023-04-21T07:03:06.110Z,228.19
2023-04-21T07:04:06.140Z,227.57
2023-04-21T07:05:06.008Z,227.53
2023-04-21T07:06:05.999Z,227.76
2023-04-21T07:07:05.963Z,227.48
2023-04-21T07:08:06.017Z,226.98
2023-04-21T07:09:05.996Z,226.17
2023-04-21T07:10:06.090Z,223.43
2023-04-21T07:11:05.949Z,220.91
2023-04-21T07:12:05.978Z,221.50
2023-04-21T07:13:07.204Z,219.92
2023-04-21T07:14:05.938Z,216.63
2023-04-21T07:15:05.918Z,217.51
2023-04-21T07:16:05.929Z,215.41
2023-04-21T07:17:06.045Z,217.03
2023-04-21T07:18:05.975Z,217.62
2023-04-21T07:19:05.996Z,218.53
2023-04-21T07:20:06.069Z,216.95
2023-04-21T07:21:06.079Z,216.48
2023-04-21T07:22:06.185Z,216.21
2023-04-21T07:23:06.190Z,215.43
2023-04-21T07:24:06.211Z,215.59
2023-04-21T07:25:06.392Z,215.45
2023-04-21T07:26:06.332Z,223.23
2023-04-21T07:27:06.427Z,227.68
2023-04-21T07:28:06.428Z,229.17
2023-04-21T07:29:06.499Z,230.51
2023-04-21T07:30:06.527Z,230.55
2023-04-21T07:31:06.617Z,228.42
2023-04-21T07:32:06.653Z,191.76
2023-04-21T07:33:06.667Z,150.18
2023-04-21T07:34:06.852Z,118.46
2023-04-21T07:35:07.165Z,132.74
2023-04-21T07:36:06.723Z,145.94
2023-04-21T07:37:06.720Z,157.26
2023-04-21T07:38:06.744Z,159.74
2023-04-21T07:39:06.752Z,167.15
2023-04-21T07:40:06.799Z,172.73
2023-04-21T07:41:06.860Z,175.56
2023-04-21T07:42:06.894Z,176.56
2023-04-21T07:43:06.918Z,179.10
2023-04-21T07:44:06.940Z,182.56
2023-04-21T07:45:07.111Z,185.22
2023-04-21T07:46:07.003Z,186.93
2023-04-21T07:47:06.984Z,191.28
2023-04-21T07:48:07.248Z,193.39
2023-04-21T07:49:07.035Z,192.83
2023-04-21T07:50:07.060Z,192.99
2023-04-21T07:51:06.989Z,192.72
2023-04-21T07:52:08.189Z,194.21
2023-04-21T07:53:07.037Z,194.92
2023-04-21T07:54:07.094Z,195.94
2023-04-21T07:55:07.088Z,195.90
2023-04-21T07:56:07.156Z,196.06
2023-04-21T07:57:07.162Z,197.24
2023-04-21T07:58:07.213Z,197.07
2023-04-21T07:59:07.269Z,192.28
2023-04-21T08:00:07.324Z,194.68
2023-04-21T08:01:07.365Z,170.13
2023-04-21T08:02:07.507Z,155.15
2023-04-21T08:03:07.408Z,135.37
2023-04-21T08:04:07.531Z,129.67
2023-04-21T08:05:07.521Z,124.69
2023-04-21T08:06:07.558Z,128.31
2023-04-21T08:07:07.636Z,130.67
2023-04-21T08:08:07.510Z,130.15
2023-04-21T08:09:07.554Z,130.55
2023-04-21T08:10:07.608Z,136.86
2023-04-21T08:11:08.590Z,144.72
2023-04-21T08:12:07.601Z,152.86
2023-04-21T08:13:07.624Z,154.97
2023-04-21T08:14:07.646Z,154.10
2023-04-21T08:15:07.696Z,157.71
2023-04-21T08:16:07.719Z,143.41
2023-04-21T08:17:07.754Z,151.69
2023-04-21T08:18:07.743Z,156.32
2023-04-21T08:19:07.697Z,160.35
2023-04-21T08:20:08.133Z,161.26
2023-04-21T08:21:07.657Z,163.46
2023-04-21T08:22:07.568Z,163.71
2023-04-21T08:23:07.657Z,165.85
2023-04-21T08:24:07.519Z,166.91
2023-04-21T08:25:07.527Z,167.23
2023-04-21T08:26:07.531Z,167.85
2023-04-21T08:27:07.514Z,169.51
2023-04-21T08:28:07.518Z,170.42
2023-04-21T08:29:07.664Z,169.33
2023-04-21T08:30:07.701Z,170.06
2023-04-21T08:31:07.562Z,166.16
2023-04-21T08:32:07.681Z,133.66
2023-04-21T08:33:07.534Z,115.38
2023-04-21T08:34:07.483Z,109.82
2023-04-21T08:35:07.493Z,115.31
2023-04-21T08:36:15.040Z,117.97
2023-04-21T08:37:08.467Z,118.27
2023-04-21T08:38:07.478Z,119.65
2023-04-21T08:39:07.464Z,121.93
2023-04-21T08:40:07.633Z,124.00
2023-04-21T08:41:07.462Z,121.77
2023-04-21T08:42:07.408Z,124.76
2023-04-21T08:43:07.474Z,120.91
2023-04-21T08:44:07.453Z,122.13
2023-04-21T08:45:07.433Z,123.59
2023-04-21T08:46:07.407Z,125.40
2023-04-21T08:47:07.402Z,123.56
2023-04-21T08:48:07.465Z,126.01
2023-04-21T08:49:07.371Z,114.26
2023-04-21T08:50:07.685Z,109.40
2023-04-21T08:51:07.401Z,112.55
2023-04-21T08:52:07.481Z,114.89
2023-04-21T08:53:07.502Z,124.33
2023-04-21T08:54:07.607Z,129.06
2023-04-21T08:55:07.624Z,136.01
2023-04-21T08:56:11.342Z,142.29
2023-04-21T08:57:15.317Z,142.55
2023-04-21T08:58:08.599Z,142.85
2023-04-21T08:59:08.144Z,145.02
2023-04-21T09:00:08.391Z,150.16
2023-04-21T09:01:07.830Z,157.99
2023-04-21T09:02:07.732Z,170.78
2023-04-21T09:03:16.155Z,175.15
2023-04-21T09:04:08.747Z,175.35
2023-04-21T09:05:08.085Z,176.00
2023-04-21T09:06:08.123Z,177.79
2023-04-21T09:07:07.457Z,179.65
2023-04-21T09:08:07.470Z,178.32
2023-04-21T09:09:07.498Z,178.58
2023-04-21T09:10:07.537Z,181.61
2023-04-21T09:11:07.678Z,182.11
2023-04-21T09:12:07.459Z,184.02
2023-04-21T09:13:07.478Z,184.47
2023-04-21T09:14:07.587Z,183.26
2023-04-21T09:15:07.634Z,182.59
2023-04-21T09:16:08.784Z,183.46
2023-04-21T09:17:07.780Z,178.39
2023-04-21T09:18:07.879Z,177.67
2023-04-21T09:19:07.844Z,177.85
2023-04-21T09:20:07.939Z,178.62
2023-04-21T09:21:08.031Z,176.50
2023-04-21T09:22:08.073Z,173.35
2023-04-21T09:23:08.160Z,173.27
2023-04-21T09:24:08.235Z,176.33
2023-04-21T09:25:08.292Z,177.06
2023-04-21T09:26:08.412Z,178.80
2023-04-21T09:27:08.408Z,178.64
2023-04-21T09:28:08.620Z,152.89
2023-04-21T09:29:08.508Z,155.72
2023-04-21T09:30:08.571Z,156.94
2023-04-21T09:31:08.653Z,165.50
2023-04-21T09:32:10.891Z,167.44
2023-04-21T09:33:20.216Z,166.19
2023-04-21T09:34:09.767Z,166.28
2023-04-21T09:35:08.710Z,166.66
2023-04-21T09:36:08.731Z,166.99
2023-04-21T09:37:08.699Z,166.42
2023-04-21T09:38:08.725Z,164.58
2023-04-21T09:40:08.708Z,162.68
2023-04-21T09:41:08.695Z,161.43
2023-04-21T09:42:08.679Z,132.54
2023-04-21T09:43:08.705Z,92.01
2023-04-21T09:44:08.665Z,59.80
2023-04-21T09:45:28.414Z,32.63
2023-04-21T09:46:09.686Z,33.25
2023-04-21T09:47:08.642Z,37.13
2023-04-21T09:48:08.929Z,49.37
2023-04-21T09:49:08.612Z,71.09
2023-04-21T09:50:12.299Z,99.12
2023-04-21T09:52:18.305Z,34.87
2023-04-21T09:53:09.591Z,35.06
2023-04-21T09:54:15.702Z,42.99
2023-04-21T09:55:09.568Z,35.09
2023-04-21T09:56:08.596Z,43.76
2023-04-21T09:57:08.579Z,58.46
2023-04-21T09:58:08.555Z,80.47
2023-04-21T09:59:08.583Z,110.83
2023-04-21T10:00:08.550Z,117.12
2023-04-21T10:01:08.829Z,117.18
2023-04-21T10:02:08.800Z,120.14
2023-04-21T10:03:08.634Z,122.37
2023-04-21T10:04:08.758Z,116.77
2023-04-21T10:05:08.611Z,116.20
2023-04-21T10:06:08.780Z,122.12
2023-04-21T10:07:08.599Z,124.22
2023-04-21T10:08:08.631Z,124.59
2023-04-21T10:09:08.753Z,128.92
2023-04-21T10:10:08.810Z,129.55
2023-04-21T10:11:08.722Z,128.09
2023-04-21T10:12:09.648Z,129.85
2023-04-21T10:13:08.757Z,130.43
2023-04-21T10:14:08.753Z,130.37
2023-04-21T10:15:08.753Z,128.52
2023-04-21T10:16:08.821Z,130.92
2023-04-21T10:17:08.792Z,127.97
2023-04-21T10:18:08.772Z,136.71
2023-04-21T10:19:08.814Z,144.89
2023-04-21T10:20:08.789Z,127.32
2023-04-21T10:21:08.788Z,107.99
2023-04-21T10:22:09.182Z,97.23
2023-04-21T10:23:08.880Z,90.65
2023-04-21T10:24:08.881Z,83.46
2023-04-21T10:25:08.848Z,84.08
2023-04-21T10:26:09.200Z,83.09
2023-04-21T10:27:08.949Z,75.97
2023-04-21T10:28:08.956Z,44.38
2023-04-21T10:29:08.983Z,29.42
2023-04-21T10:30:08.988Z,34.16
2023-04-21T10:31:09.074Z,18.08
2023-04-21T10:32:09.518Z,9.66
2023-04-21T10:33:09.100Z,6.27
2023-04-21T10:34:09.099Z,9.98
2023-04-21T10:35:09.113Z,2.35
2023-04-21T10:36:09.140Z,5.98
2023-04-21T10:37:09.173Z,11.01
2023-04-21T10:38:09.197Z,17.09
2023-04-21T10:39:09.259Z,24.87
2023-04-21T10:40:09.333Z,31.24
2023-04-21T10:41:09.321Z,44.30
2023-04-21T10:42:09.692Z,54.89
2023-04-21T10:43:09.339Z,60.80
2023-04-21T10:44:09.395Z,63.42
2023-04-21T10:45:09.414Z,63.33
2023-04-21T10:46:09.442Z,62.00
2023-04-21T10:47:09.871Z,66.31
2023-04-21T10:48:09.521Z,70.02
2023-04-21T10:49:09.545Z,69.71
2023-04-21T10:50:09.573Z,69.60
2023-04-21T10:51:09.572Z,70.80
2023-04-21T10:52:09.593Z,73.03
2023-04-21T10:53:09.659Z,73.96
2023-04-21T10:54:10.561Z,76.78
2023-04-21T10:55:10.178Z,78.63
2023-04-21T10:56:09.641Z,78.89
2023-04-21T10:57:09.742Z,80.30
2023-04-21T10:58:09.689Z,80.36
2023-04-21T10:59:09.657Z,80.33
2023-04-21T11:00:09.687Z,83.22
2023-04-21T11:01:09.807Z,79.06
2023-04-21T11:02:10.278Z,80.81
2023-04-21T11:03:09.823Z,79.99
2023-04-21T11:04:09.898Z,81.17
2023-04-21T11:05:09.798Z,84.79
2023-04-21T11:06:09.791Z,84.63
2023-04-21T11:07:09.764Z,84.91
2023-04-21T11:08:09.785Z,85.94
2023-04-21T11:09:09.774Z,82.78
2023-04-21T11:10:09.778Z,83.27
2023-04-21T11:11:09.794Z,81.66
2023-04-21T11:12:10.713Z,82.33
2023-04-21T11:13:09.941Z,82.87
2023-04-21T11:14:09.795Z,82.09
2023-04-21T11:15:09.834Z,80.18
2023-04-21T11:16:09.837Z,79.94
2023-04-21T11:17:10.320Z,80.73
2023-04-21T11:18:09.984Z,82.71
2023-04-21T11:19:09.863Z,80.95
2023-04-21T11:20:09.834Z,79.47
2023-04-21T11:21:09.826Z,81.23
2023-04-21T11:22:10.200Z,81.12
2023-04-21T11:23:09.832Z,79.80
2023-04-21T11:24:09.817Z,78.41
2023-04-21T11:25:09.849Z,79.85
2023-04-21T11:26:10.200Z,79.27
2023-04-21T11:27:09.882Z,69.65
2023-04-21T11:28:09.860Z,73.43
2023-04-21T11:29:09.914Z,76.43
2023-04-21T11:30:09.884Z,75.65
2023-04-21T11:31:09.894Z,74.25
2023-04-21T11:32:09.869Z,69.50
2023-04-21T11:33:10.298Z,69.05
2023-04-21T11:34:09.845Z,69.78
2023-04-21T11:35:09.814Z,65.09
2023-04-21T11:36:09.839Z,56.72
2023-04-21T11:37:09.865Z,54.93
2023-04-21T11:38:09.838Z,54.44
2023-04-21T11:39:09.860Z,51.77
2023-04-21T11:40:09.887Z,52.19
2023-04-21T11:41:09.908Z,53.96
2023-04-21T11:42:09.872Z,61.99
2023-04-21T11:43:09.866Z,63.19
2023-04-21T11:44:09.879Z,64.67
2023-04-21T11:45:09.878Z,58.30
2023-04-21T11:46:09.906Z,59.31
2023-04-21T11:47:09.952Z,56.12
2023-04-21T11:48:09.880Z,50.38
2023-04-21T11:49:09.887Z,52.81
2023-04-21T11:50:09.870Z,54.16
2023-04-21T11:51:09.936Z,56.86
2023-04-21T11:52:09.887Z,51.46
2023-04-21T11:53:09.870Z,45.59
2023-04-21T11:54:09.913Z,48.11
2023-04-21T11:55:09.885Z,54.41
2023-04-21T11:56:09.895Z,61.02
2023-04-21T11:57:09.899Z,60.02
2023-04-21T11:58:09.910Z,53.02
2023-04-21T11:59:09.957Z,46.15
2023-04-21T12:00:09.924Z,47.74
2023-04-21T12:01:10.022Z,46.30
2023-04-21T12:02:09.980Z,44.83
2023-04-21T12:03:10.091Z,45.69
2023-04-21T12:04:10.068Z,47.98
2023-04-21T12:05:10.145Z,50.15
2023-04-21T12:06:10.000Z,48.18
2023-04-21T12:07:09.998Z,49.47
2023-04-21T12:08:09.975Z,46.24
2023-04-21T12:09:09.994Z,45.14
2023-04-21T12:10:10.048Z,47.08
2023-04-21T12:11:09.991Z,48.56
2023-04-21T12:12:10.025Z,49.40
2023-04-21T12:13:10.032Z,53.80
2023-04-21T12:14:10.037Z,52.04
2023-04-21T12:15:10.016Z,46.66
2023-04-21T12:16:10.125Z,46.42
2023-04-21T12:17:10.050Z,50.05
2023-04-21T12:18:10.120Z,45.71
2023-04-21T12:19:10.070Z,46.16
2023-04-21T12:20:10.227Z,47.49
2023-04-21T12:21:10.092Z,43.37
2023-04-21T12:22:10.106Z,41.48
2023-04-21T12:23:10.125Z,34.97
2023-04-21T12:24:10.192Z,37.62
2023-04-21T12:25:10.154Z,41.80
2023-04-21T12:26:10.226Z,37.91
2023-04-21T12:27:10.264Z,33.53
2023-04-21T12:28:10.209Z,35.19
2023-04-21T12:29:10.249Z,36.76
2023-04-21T12:30:10.274Z,40.45
2023-04-21T12:31:10.325Z,43.28
2023-04-21T12:32:10.552Z,42.66
2023-04-21T12:33:10.399Z,43.12
2023-04-21T12:34:10.410Z,29.42
2023-04-21T12:35:10.349Z,18.71
2023-04-21T12:36:10.330Z,11.69